createdAt,value
2023-01-19T00:00:14.997Z,36.02
2023-01-19T00:02:43.520Z,36.05
2023-01-19T00:05:10.695Z,36.27
2023-01-19T00:07:37.598Z,36.45
2023-01-19T00:10:05.056Z,36.46
2023-01-19T00:12:31.941Z,36.47
2023-01-19T00:14:58.925Z,36.60
2023-01-19T00:17:25.833Z,36.72
2023-01-19T00:19:52.676Z,36.82
2023-01-19T00:22:19.473Z,36.92
2023-01-19T00:24:46.282Z,36.87
2023-01-19T00:27:13.167Z,36.81
2023-01-19T00:29:39.967Z,36.97
2023-01-19T00:32:07.132Z,37.08
2023-01-19T00:34:49.648Z,37.07
2023-01-19T00:37:17.558Z,37.17
2023-01-19T00:39:45.086Z,37.26
2023-01-19T00:42:31.914Z,37.10
2023-01-19T00:44:58.830Z,37.03
2023-01-19T00:47:25.980Z,36.87
2023-01-19T00:49:52.782Z,36.92
2023-01-19T00:52:19.755Z,36.69
2023-01-19T00:54:46.548Z,36.83
2023-01-19T00:57:13.621Z,36.85
2023-01-19T00:59:40.404Z,36.69
2023-01-19T01:02:07.512Z,36.80
2023-01-19T01:04:34.517Z,36.62
2023-01-19T01:07:01.250Z,36.72
2023-01-19T01:09:28.284Z,36.76
2023-01-19T01:11:55.094Z,36.65
2023-01-19T01:14:21.901Z,36.76
2023-01-19T01:16:48.850Z,36.75
2023-01-19T01:19:16.166Z,36.72
2023-01-19T01:21:43.114Z,36.74
2023-01-19T01:24:10.248Z,36.75
2023-01-19T01:26:37.038Z,36.87
2023-01-19T01:29:06.382Z,36.93
2023-01-19T01:31:33.186Z,36.65
2023-01-19T01:34:00.104Z,36.57
2023-01-19T01:36:29.196Z,36.67
2023-01-19T01:38:55.992Z,36.58
2023-01-19T01:41:25.450Z,36.57
2023-01-19T01:43:58.355Z,36.49
2023-01-19T01:46:26.869Z,36.44
2023-01-19T01:48:59.400Z,36.40
2023-01-19T01:51:33.346Z,36.46
2023-01-19T01:54:19.955Z,36.40
2023-01-19T01:56:49.704Z,36.54
2023-01-19T01:59:29.436Z,36.29
2023-01-19T02:02:18.781Z,36.18
2023-01-19T02:05:00.687Z,36.15
2023-01-19T02:07:51.396Z,36.05
2023-01-19T02:10:37.359Z,36.08
2023-01-19T02:13:22.607Z,36.14
2023-01-19T02:15:53.379Z,36.07
2023-01-19T02:18:22.463Z,35.82
2023-01-19T02:21:14.533Z,35.61
2023-01-19T02:23:44.664Z,35.86
2023-01-19T02:26:16.271Z,35.72
2023-01-19T02:28:48.445Z,35.55
2023-01-19T02:31:15.326Z,35.55
2023-01-19T02:33:42.436Z,35.54
2023-01-19T02:36:12.633Z,35.38
2023-01-19T02:38:42.080Z,35.38
2023-01-19T02:41:11.393Z,35.43
2023-01-19T02:43:39.066Z,35.22
2023-01-19T02:46:06.123Z,35.37
2023-01-19T02:48:32.971Z,35.20
2023-01-19T02:51:12.734Z,35.30
2023-01-19T02:54:02.616Z,35.31
2023-01-19T02:56:29.353Z,35.56
2023-01-19T02:59:06.259Z,35.65
2023-01-19T03:01:56.829Z,35.48
2023-01-19T03:04:26.708Z,35.61
2023-01-19T03:07:14.577Z,35.42
2023-01-19T03:09:52.762Z,35.38
2023-01-19T03:12:32.755Z,35.36
2023-01-19T03:15:06.013Z,35.39
2023-01-19T03:17:34.656Z,35.14
2023-01-19T03:20:03.840Z,35.15
2023-01-19T03:22:32.393Z,35.01
2023-01-19T03:25:01.778Z,35.14
2023-01-19T03:27:32.776Z,34.98
2023-01-19T03:30:05.438Z,35.09
2023-01-19T03:32:37.995Z,34.92
2023-01-19T03:35:11.849Z,35.21
2023-01-19T03:37:44.170Z,35.11
2023-01-19T03:40:12.071Z,34.97
2023-01-19T03:42:40.847Z,34.97
2023-01-19T03:45:09.233Z,35.17
2023-01-19T03:47:36.617Z,35.40
2023-01-19T03:50:09.011Z,35.28
2023-01-19T03:52:35.797Z,35.31
2023-01-19T03:55:04.593Z,35.25
2023-01-19T03:57:31.747Z,35.28
2023-01-19T03:59:58.548Z,35.08
2023-01-19T04:02:25.609Z,35.05
2023-01-19T04:04:52.498Z,34.96
2023-01-19T04:07:19.322Z,34.72
2023-01-19T04:09:46.125Z,34.60
2023-01-19T04:12:12.951Z,34.79
2023-01-19T04:14:39.755Z,34.78
2023-01-19T04:17:06.605Z,34.69
2023-01-19T04:19:33.458Z,34.54
2023-01-19T04:22:00.642Z,34.33
2023-01-19T04:24:28.095Z,34.31
2023-01-19T04:26:54.892Z,34.00
2023-01-19T04:29:21.678Z,34.05
2023-01-19T04:31:48.524Z,33.87
2023-01-19T04:34:15.402Z,33.88
2023-01-19T04:36:42.153Z,33.66
2023-01-19T04:39:09.263Z,33.86
2023-01-19T04:41:36.096Z,33.81
2023-01-19T04:44:03.336Z,33.73
2023-01-19T04:46:30.125Z,33.91
2023-01-19T04:48:57.005Z,33.93
2023-01-19T04:51:23.939Z,33.64
2023-01-19T04:53:50.787Z,33.86
2023-01-19T04:56:17.510Z,33.73
2023-01-19T04:58:44.408Z,33.40
2023-01-19T05:01:11.284Z,33.39
2023-01-19T05:03:38.141Z,33.31
2023-01-19T05:06:05.000Z,33.41
2023-01-19T05:08:31.795Z,33.24
2023-01-19T05:10:58.593Z,33.37
2023-01-19T05:13:26.245Z,33.35
2023-01-19T05:15:53.129Z,33.28
2023-01-19T05:18:19.951Z,33.05
2023-01-19T05:20:47.056Z,33.15
2023-01-19T05:23:13.847Z,33.30
2023-01-19T05:25:40.637Z,33.08
2023-01-19T05:28:07.705Z,32.87
2023-01-19T05:30:34.599Z,33.21
2023-01-19T05:33:01.726Z,32.92
2023-01-19T05:35:35.768Z,32.72
2023-01-19T05:38:03.349Z,32.98
2023-01-19T05:40:30.174Z,32.78
2023-01-19T05:43:01.142Z,33.01
2023-01-19T05:45:28.684Z,33.09
2023-01-19T05:47:55.848Z,32.99
2023-01-19T05:50:22.760Z,32.98
2023-01-19T05:52:49.643Z,32.96
2023-01-19T05:55:16.641Z,32.90
2023-01-19T05:57:43.655Z,32.92
2023-01-19T06:00:11.008Z,32.89
2023-01-19T06:02:40.023Z,32.27
2023-01-19T06:05:07.107Z,32.26
2023-01-19T06:07:33.967Z,32.12
2023-01-19T06:10:01.292Z,32.31
2023-01-19T06:12:28.290Z,32.45
2023-01-19T06:14:55.039Z,32.28
2023-01-19T06:17:21.857Z,32.30
2023-01-19T06:19:48.762Z,32.08
2023-01-19T06:22:15.840Z,32.27
2023-01-19T06:24:42.801Z,31.97
2023-01-19T06:27:09.664Z,31.94
2023-01-19T06:29:36.779Z,31.68
2023-01-19T06:32:03.747Z,31.28
2023-01-19T06:34:30.518Z,30.93
2023-01-19T06:36:57.857Z,30.42
2023-01-19T06:39:24.745Z,30.26
2023-01-19T06:41:51.943Z,30.31
2023-01-19T06:44:18.709Z,29.45
2023-01-19T06:46:45.615Z,29.22
2023-01-19T06:49:12.385Z,28.82
2023-01-19T06:51:39.203Z,29.08
2023-01-19T06:54:06.134Z,28.30
2023-01-19T06:56:33.037Z,28.34
2023-01-19T06:58:59.779Z,28.32
2023-01-19T07:01:27.145Z,27.73
2023-01-19T07:03:54.607Z,26.91
2023-01-19T07:06:21.443Z,26.79
2023-01-19T07:08:48.247Z,26.92
2023-01-19T07:11:24.721Z,26.59
2023-01-19T07:13:57.019Z,25.62
2023-01-19T07:16:24.015Z,25.66
2023-01-19T07:18:51.161Z,25.07
2023-01-19T07:21:18.459Z,24.05
2023-01-19T07:23:48.630Z,24.56
2023-01-19T07:26:18.621Z,24.45
2023-01-19T07:28:47.359Z,23.56
2023-01-19T07:31:15.772Z,24.13
2023-01-19T07:33:42.709Z,24.25
2023-01-19T07:36:09.852Z,23.38
2023-01-19T07:38:36.666Z,23.10
2023-01-19T07:41:09.728Z,22.78
2023-01-19T07:43:36.680Z,22.82
2023-01-19T07:46:05.784Z,22.04
2023-01-19T07:48:32.738Z,21.24
2023-01-19T07:51:17.990Z,21.02
2023-01-19T07:53:45.709Z,21.08
2023-01-19T07:56:12.675Z,20.67
2023-01-19T07:58:40.161Z,21.00
2023-01-19T08:01:12.696Z,20.74
2023-01-19T08:03:40.050Z,20.87
2023-01-19T08:06:07.446Z,20.95
2023-01-19T08:08:34.613Z,19.41
2023-01-19T08:11:01.401Z,20.12
2023-01-19T08:13:28.240Z,20.31
2023-01-19T08:15:55.453Z,19.68
2023-01-19T08:18:22.281Z,19.81
2023-01-19T08:20:49.177Z,19.89
2023-01-19T08:23:18.159Z,19.85
2023-01-19T08:25:46.040Z,19.17
2023-01-19T08:28:15.894Z,19.20
2023-01-19T08:30:45.565Z,18.90
2023-01-19T08:33:13.868Z,18.53
2023-01-19T08:35:42.392Z,18.45
2023-01-19T08:38:10.492Z,18.45
2023-01-19T08:40:39.440Z,18.35
2023-01-19T08:43:09.528Z,18.14
2023-01-19T08:45:46.700Z,17.77
2023-01-19T08:48:18.516Z,16.36
2023-01-19T08:50:49.524Z,16.49
2023-01-19T08:53:16.621Z,16.18
2023-01-19T08:55:43.630Z,15.58
2023-01-19T08:58:10.652Z,14.88
2023-01-19T09:00:38.991Z,16.14
2023-01-19T09:03:07.701Z,16.42
2023-01-19T09:05:37.427Z,15.94
2023-01-19T09:08:11.430Z,16.37
2023-01-19T09:10:39.185Z,17.55
2023-01-19T09:13:08.683Z,18.05
2023-01-19T09:15:37.850Z,18.08
2023-01-19T09:18:08.046Z,18.43
2023-01-19T09:20:36.307Z,18.44
2023-01-19T09:23:03.228Z,18.88
2023-01-19T09:25:30.490Z,19.12
2023-01-19T09:28:00.026Z,19.25
2023-01-19T09:30:27.898Z,19.18
2023-01-19T09:32:54.922Z,19.80
2023-01-19T09:35:21.734Z,21.22
2023-01-19T09:37:48.726Z,20.79
2023-01-19T09:40:18.977Z,21.08
2023-01-19T09:42:55.865Z,20.93
2023-01-19T09:45:39.892Z,21.41
2023-01-19T09:48:35.934Z,21.78
2023-01-19T09:51:07.767Z,21.84
2023-01-19T09:53:42.125Z,21.78
2023-01-19T09:56:20.252Z,21.69
2023-01-19T09:58:48.767Z,21.64
2023-01-19T10:01:21.494Z,22.39
2023-01-19T10:03:53.637Z,22.47
2023-01-19T10:06:21.824Z,22.40
2023-01-19T10:09:05.420Z,22.38
2023-01-19T10:11:54.508Z,22.26
2023-01-19T10:14:30.714Z,22.70
2023-01-19T10:17:23.602Z,22.58
2023-01-19T10:19:56.688Z,22.88
2023-01-19T10:22:26.897Z,23.23
2023-01-19T10:24:57.242Z,23.07
2023-01-19T10:27:30.773Z,23.46
2023-01-19T10:29:59.138Z,23.55
2023-01-19T10:32:30.482Z,23.72
2023-01-19T10:34:59.894Z,23.74
2023-01-19T10:37:34.344Z,23.83
2023-01-19T10:40:03.376Z,23.69
2023-01-19T10:42:30.988Z,23.76
2023-01-19T10:44:57.994Z,23.94
2023-01-19T10:47:34.079Z,24.07
2023-01-19T10:50:22.840Z,23.94
2023-01-19T10:52:52.605Z,24.03
2023-01-19T10:55:34.395Z,24.40
2023-01-19T10:58:02.169Z,24.63
2023-01-19T11:00:29.027Z,24.71
2023-01-19T11:02:56.015Z,24.74
2023-01-19T11:05:31.194Z,24.76
2023-01-19T11:07:58.573Z,25.59
2023-01-19T11:10:26.478Z,26.44
2023-01-19T11:13:01.872Z,25.78
2023-01-19T11:15:48.400Z,25.47
2023-01-19T11:18:30.272Z,25.07
2023-01-19T11:21:03.798Z,25.23
2023-01-19T11:23:47.199Z,25.70
2023-01-19T11:26:24.724Z,25.76
2023-01-19T11:28:54.843Z,26.13
2023-01-19T11:31:27.776Z,26.19
2023-01-19T11:34:06.678Z,25.88
2023-01-19T11:36:36.946Z,26.05
2023-01-19T11:39:12.548Z,26.38
2023-01-19T11:41:41.804Z,25.90
2023-01-19T11:44:36.878Z,25.96
2023-01-19T11:47:12.569Z,25.58
2023-01-19T11:49:59.880Z,25.52
2023-01-19T11:52:43.142Z,25.83
2023-01-19T11:55:25.433Z,25.67
2023-01-19T11:57:54.586Z,25.89
2023-01-19T12:00:39.639Z,25.98
2023-01-19T12:03:09.626Z,26.01
2023-01-19T12:05:40.894Z,25.94
2023-01-19T12:08:14.552Z,25.98
2023-01-19T12:10:45.549Z,26.08
2023-01-19T12:13:26.655Z,26.16
2023-01-19T12:15:59.989Z,25.94
2023-01-19T12:18:35.689Z,26.14
2023-01-19T12:21:04.183Z,25.89
2023-01-19T12:23:57.988Z,25.90
2023-01-19T12:26:33.574Z,25.96
2023-01-19T12:29:24.143Z,25.97
2023-01-19T12:32:18.237Z,25.76
2023-01-19T12:34:46.870Z,26.05
2023-01-19T12:37:32.449Z,25.85
2023-01-19T12:40:28.675Z,25.80
2023-01-19T12:42:57.701Z,26.02
2023-01-19T12:45:29.472Z,26.05
2023-01-19T12:47:56.827Z,26.09
2023-01-19T12:50:26.061Z,26.08
2023-01-19T12:52:58.504Z,25.99
2023-01-19T12:55:31.540Z,26.08
2023-01-19T12:58:03.767Z,26.32
2023-01-19T13:00:36.891Z,26.43
2023-01-19T13:03:05.093Z,26.54
2023-01-19T13:05:33.286Z,26.68
2023-01-19T13:08:03.243Z,26.52
2023-01-19T13:10:54.775Z,26.42
2023-01-19T13:13:24.598Z,26.58
2023-01-19T13:15:55.456Z,26.63
2023-01-19T13:18:32.030Z,26.73
2023-01-19T13:21:01.015Z,26.51
2023-01-19T13:23:51.793Z,26.65
2023-01-19T13:26:21.376Z,26.78
2023-01-19T13:28:55.086Z,26.77
2023-01-19T13:31:23.881Z,26.82
2023-01-19T13:33:54.821Z,26.99
2023-01-19T13:36:27.306Z,26.86
2023-01-19T13:38:55.539Z,26.91
2023-01-19T13:41:25.289Z,26.72
2023-01-19T13:44:01.751Z,26.87
2023-01-19T13:46:30.459Z,26.83
2023-01-19T13:49:04.586Z,26.93
2023-01-19T13:51:31.425Z,26.81
2023-01-19T13:53:59.919Z,26.88
2023-01-19T13:56:28.598Z,26.83
2023-01-19T13:58:59.553Z,26.82
2023-01-19T14:01:29.256Z,26.84
2023-01-19T14:03:56.906Z,26.99
2023-01-19T14:06:31.176Z,26.88
2023-01-19T14:09:16.755Z,27.12
2023-01-19T14:12:07.466Z,27.12
2023-01-19T14:14:34.468Z,27.24
2023-01-19T14:17:01.357Z,27.21
2023-01-19T14:19:28.731Z,27.37
2023-01-19T14:22:03.918Z,27.46
2023-01-19T14:24:33.411Z,27.51
2023-01-19T14:27:22.832Z,27.62
2023-01-19T14:29:53.803Z,27.72
2023-01-19T14:32:25.268Z,27.64
2023-01-19T14:35:05.242Z,27.66
2023-01-19T14:37:35.844Z,27.88
2023-01-19T14:40:04.889Z,27.93
2023-01-19T14:42:45.350Z,27.97
2023-01-19T14:45:30.471Z,27.99
2023-01-19T14:48:00.790Z,28.05
2023-01-19T14:50:34.461Z,28.07
2023-01-19T14:53:05.292Z,28.12
2023-01-19T14:55:54.396Z,28.20
2023-01-19T14:58:24.855Z,27.91
2023-01-19T15:00:55.739Z,28.02
2023-01-19T15:03:32.036Z,28.12
2023-01-19T15:06:14.831Z,28.24
2023-01-19T15:08:42.343Z,28.18
2023-01-19T15:11:23.169Z,28.17
2023-01-19T15:13:54.906Z,28.25
2023-01-19T15:17:10.110Z,28.24
2023-01-19T15:19:46.968Z,28.47
2023-01-19T15:22:16.702Z,28.52
2023-01-19T15:24:43.671Z,28.64
2023-01-19T15:27:13.435Z,28.65
2023-01-19T15:29:40.519Z,28.81
2023-01-19T15:32:15.021Z,28.90
2023-01-19T15:34:42.332Z,29.05
2023-01-19T15:37:09.670Z,29.12
2023-01-19T15:39:36.710Z,29.19
2023-01-19T15:42:04.072Z,29.10
2023-01-19T15:44:31.094Z,29.19
2023-01-19T15:47:01.309Z,29.09
2023-01-19T15:49:28.359Z,29.17
2023-01-19T15:52:00.921Z,29.39
2023-01-19T15:54:27.839Z,29.36
2023-01-19T15:56:57.330Z,29.34
2023-01-19T15:59:24.347Z,29.36
2023-01-19T16:01:51.479Z,29.62
2023-01-19T16:04:19.131Z,29.85
2023-01-19T16:06:46.062Z,29.83
2023-01-19T16:09:18.491Z,29.95
2023-01-19T16:11:46.198Z,30.22
2023-01-19T16:14:13.022Z,30.37
2023-01-19T16:16:39.991Z,30.66
2023-01-19T16:19:07.044Z,30.99
2023-01-19T16:21:33.908Z,31.30
2023-01-19T16:24:00.853Z,31.90
2023-01-19T16:26:32.321Z,32.50
2023-01-19T16:29:02.028Z,33.06
2023-01-19T16:31:29.612Z,33.81
2023-01-19T16:33:56.573Z,35.31
2023-01-19T16:36:28.932Z,36.19
2023-01-19T16:38:59.759Z,37.02
2023-01-19T16:41:27.245Z,37.77
2023-01-19T16:43:55.887Z,38.65
2023-01-19T16:46:28.206Z,39.04
2023-01-19T16:48:59.602Z,39.50
2023-01-19T16:51:26.418Z,40.00
2023-01-19T16:53:54.308Z,41.04
2023-01-19T16:56:21.545Z,41.45
2023-01-19T16:58:48.454Z,41.32
2023-01-19T17:01:20.032Z,41.38
2023-01-19T17:03:47.592Z,41.73
2023-01-19T17:06:20.514Z,41.95
2023-01-19T17:08:47.738Z,42.29
2023-01-19T17:11:20.999Z,42.66
2023-01-19T17:13:49.469Z,42.81
2023-01-19T17:16:16.818Z,43.21
2023-01-19T17:18:43.989Z,43.44
2023-01-19T17:21:11.078Z,43.27
2023-01-19T17:23:42.596Z,43.30
2023-01-19T17:26:09.722Z,43.52
2023-01-19T17:28:37.277Z,43.75
2023-01-19T17:31:07.090Z,43.88
2023-01-19T17:33:34.552Z,44.13
2023-01-19T17:36:07.012Z,44.18
2023-01-19T17:38:36.663Z,43.97
2023-01-19T17:41:12.756Z,43.89
2023-01-19T17:43:39.801Z,43.76
2023-01-19T17:46:06.598Z,44.49
2023-01-19T17:48:33.355Z,45.70
2023-01-19T17:51:12.125Z,44.33
2023-01-19T17:53:43.205Z,44.15
2023-01-19T17:56:15.000Z,44.30
2023-01-19T17:58:43.041Z,44.48
2023-01-19T18:02:12.250Z,44.48
2023-01-19T18:04:49.366Z,44.90
2023-01-19T18:07:16.480Z,45.21
2023-01-19T18:09:43.433Z,45.45
2023-01-19T18:12:13.185Z,45.45
2023-01-19T18:14:41.991Z,45.73
2023-01-19T18:17:09.103Z,46.54
2023-01-19T18:19:37.519Z,46.84
2023-01-19T18:26:30.083Z,47.88
2023-01-19T18:29:03.953Z,48.14
2023-01-19T18:31:32.867Z,48.48
2023-01-19T18:34:00.196Z,48.94
2023-01-19T18:36:32.748Z,49.21
2023-01-19T18:39:03.467Z,49.41
2023-01-19T18:41:35.649Z,49.76
2023-01-19T18:44:03.357Z,50.03
2023-01-19T18:46:30.486Z,50.08
2023-01-19T18:48:57.697Z,50.17
2023-01-19T18:53:01.446Z,50.22
2023-01-19T19:40:24.946Z,52.04
2023-01-19T19:42:52.190Z,52.26
2023-01-19T19:45:19.642Z,52.47
2023-01-19T19:56:01.056Z,53.66
2023-01-19T19:58:29.158Z,53.21
2023-01-19T20:00:56.810Z,53.26
2023-01-19T20:03:27.484Z,53.49
2023-01-19T20:05:54.466Z,53.51
2023-01-19T20:08:21.623Z,53.32
2023-01-19T20:10:48.911Z,52.96
2023-01-19T20:13:19.329Z,53.16
2023-01-19T20:15:46.365Z,53.48
2023-01-19T20:18:13.666Z,54.08
2023-01-19T20:20:40.658Z,53.97
2023-01-19T20:23:07.659Z,54.29
2023-01-19T20:25:39.971Z,54.50
2023-01-19T20:28:06.898Z,54.69
2023-01-19T20:30:34.352Z,55.14
2023-01-19T20:33:02.650Z,55.37
2023-01-19T20:35:29.621Z,54.88
2023-01-19T20:37:56.804Z,55.18
2023-01-19T20:40:23.902Z,55.73
2023-01-19T20:42:50.901Z,56.08
2023-01-19T20:45:19.047Z,56.29
2023-01-19T20:47:45.979Z,56.35
2023-01-19T20:50:12.875Z,56.75
2023-01-19T20:52:39.694Z,57.05
2023-01-19T20:55:08.998Z,57.23
2023-01-19T20:57:35.937Z,57.80
2023-01-19T21:00:02.809Z,58.00
2023-01-19T21:02:30.545Z,57.79
2023-01-19T21:04:57.396Z,58.05
2023-01-19T21:07:24.177Z,58.17
2023-01-19T21:09:51.040Z,58.16
2023-01-19T21:12:17.956Z,58.13
2023-01-19T21:14:46.087Z,58.01
2023-01-19T21:17:12.973Z,57.78
2023-01-19T21:19:39.870Z,57.84
2023-01-19T21:22:06.684Z,57.80
2023-01-19T21:24:33.488Z,57.82
2023-01-19T21:27:00.397Z,57.81
2023-01-19T21:29:27.282Z,57.93
2023-01-19T21:31:54.212Z,57.82
2023-01-19T21:34:21.216Z,58.07
2023-01-19T21:36:48.121Z,57.94
2023-01-19T21:39:17.231Z,58.14
2023-01-19T21:41:45.301Z,58.25
2023-01-19T21:50:57.843Z,58.69
2023-01-19T21:53:24.773Z,58.84
2023-01-19T21:55:51.610Z,58.82
2023-01-19T21:58:18.428Z,58.88
2023-01-19T22:00:45.609Z,58.69
2023-01-19T22:03:12.578Z,58.48
2023-01-19T22:05:39.461Z,58.31
2023-01-19T22:08:06.682Z,58.13
2023-01-19T22:10:38.004Z,58.13
2023-01-19T22:13:09.648Z,58.07
2023-01-19T22:15:36.577Z,57.88
2023-01-19T22:18:03.615Z,57.93
2023-01-19T22:20:30.464Z,57.98
2023-01-19T22:22:57.348Z,57.76
2023-01-19T22:25:27.819Z,58.07
2023-01-19T22:27:55.872Z,57.92
2023-01-19T22:30:22.763Z,57.86
2023-01-19T22:32:49.711Z,57.86
2023-01-19T22:35:16.675Z,58.05
2023-01-19T22:37:43.585Z,58.31
2023-01-19T22:40:11.908Z,58.57
2023-01-19T22:42:38.774Z,58.85
2023-01-19T22:45:06.103Z,59.43
2023-01-19T22:47:32.998Z,59.82
2023-01-19T22:49:59.845Z,60.08
2023-01-19T22:52:26.684Z,60.29
2023-01-19T22:54:56.495Z,60.57
2023-01-19T22:57:23.923Z,60.92
2023-01-19T22:59:50.764Z,60.97
2023-01-19T23:02:19.788Z,61.06
2023-01-19T23:04:47.749Z,61.04
2023-01-19T23:07:14.617Z,60.94
2023-01-19T23:09:41.514Z,61.04
2023-01-19T23:12:08.388Z,61.07
2023-01-19T23:14:36.360Z,61.19
2023-01-19T23:17:04.965Z,61.42
2023-01-19T23:19:31.793Z,61.52
2023-01-19T23:21:58.583Z,61.46
2023-01-19T23:24:25.687Z,61.32
2023-01-19T23:26:52.589Z,61.21
2023-01-19T23:29:19.990Z,61.31
2023-01-19T23:31:49.608Z,61.42
2023-01-19T23:34:17.088Z,61.65
2023-01-19T23:36:44.753Z,62.28
2023-01-19T23:39:20.877Z,62.62
2023-01-19T23:41:48.381Z,62.77
2023-01-19T23:44:15.802Z,62.72
2023-01-19T23:46:44.095Z,62.86
2023-01-19T23:49:11.967Z,62.41
2023-01-19T23:51:40.847Z,61.87
2023-01-19T23:54:08.005Z,61.85
2023-01-19T23:56:37.572Z,61.81
2023-01-19T23:59:07.168Z,61.50
